createdAt,value
2019-02-12T00:01:34.171Z,24.15
2019-02-12T00:04:02.579Z,24.18
2019-02-12T00:06:29.646Z,18.50
2019-02-12T00:08:56.981Z,19.32
2019-02-12T00:11:24.172Z,19.05
2019-02-12T00:13:51.513Z,18.05
2019-02-12T00:16:18.907Z,15.13
2019-02-12T00:18:46.170Z,18.23
2019-02-12T00:21:13.559Z,20.32
2019-02-12T00:23:40.776Z,18.02
2019-02-12T00:26:08.071Z,18.75
2019-02-12T00:28:35.418Z,18.30
2019-02-12T00:31:02.893Z,17.87
2019-02-12T00:33:30.220Z,19.33
2019-02-12T00:35:57.490Z,21.80
2019-02-12T00:38:24.956Z,18.85
2019-02-12T00:40:52.267Z,16.10
2019-02-12T00:43:19.439Z,20.62
2019-02-12T00:45:46.668Z,19.60
2019-02-12T00:48:13.876Z,18.20
2019-02-12T00:50:41.171Z,15.93
2019-02-12T00:53:08.357Z,14.63
2019-02-12T00:55:35.787Z,17.80
2019-02-12T00:58:03.091Z,17.65
2019-02-12T01:00:30.284Z,15.30
2019-02-12T01:02:57.562Z,10.88
2019-02-12T01:05:25.008Z,15.30
2019-02-12T01:07:52.287Z,17.45
2019-02-12T01:10:19.591Z,15.40
2019-02-12T01:12:46.878Z,18.52
2019-02-12T01:15:15.097Z,17.77
2019-02-12T01:17:42.494Z,15.40
2019-02-12T01:20:11.023Z,16.32
2019-02-12T01:22:38.434Z,15.95
2019-02-12T01:25:06.548Z,16.73
2019-02-12T01:27:33.840Z,19.75
2019-02-12T01:30:01.187Z,16.60
2019-02-12T01:32:28.560Z,19.17
2019-02-12T01:34:55.878Z,19.17
2019-02-12T01:37:23.287Z,18.73
2019-02-12T01:39:50.598Z,20.55
2019-02-12T01:42:17.985Z,16.48
2019-02-12T01:44:45.287Z,16.62
2019-02-12T01:47:12.499Z,22.48
2019-02-12T01:49:39.815Z,13.68
2019-02-12T01:52:07.048Z,21.00
2019-02-12T01:54:34.218Z,21.62
2019-02-12T01:57:01.481Z,19.32
2019-02-12T01:59:28.762Z,15.72
2019-02-12T02:01:55.882Z,20.30
2019-02-12T02:04:23.035Z,18.43
2019-02-12T02:06:50.166Z,21.95
2019-02-12T02:12:00.105Z,24.43
2019-02-12T02:14:29.978Z,16.42
2019-02-12T02:16:59.779Z,19.35
2019-02-12T02:19:29.488Z,22.98
2019-02-12T02:21:59.336Z,18.30
2019-02-12T02:24:29.120Z,23.25
2019-02-12T02:26:58.949Z,18.25
2019-02-12T02:29:28.624Z,19.62
2019-02-12T02:31:58.300Z,17.10
2019-02-12T02:34:28.058Z,20.40
2019-02-12T02:36:57.860Z,17.65
2019-02-12T02:39:27.610Z,15.28
2019-02-12T02:41:57.342Z,17.57
2019-02-12T02:44:27.040Z,18.37
2019-02-12T02:46:56.811Z,19.77
2019-02-12T02:49:26.662Z,20.12
2019-02-12T02:51:56.435Z,16.85
2019-02-12T02:54:31.207Z,19.85
2019-02-12T02:57:01.054Z,17.95
2019-02-12T02:59:30.891Z,23.07
2019-02-12T03:02:00.636Z,17.52
2019-02-12T03:04:30.464Z,19.87
2019-02-12T03:07:00.271Z,19.07
2019-02-12T03:09:30.051Z,19.45
2019-02-12T03:11:59.746Z,20.72
2019-02-12T03:14:30.576Z,19.27
2019-02-12T03:17:00.346Z,16.90
2019-02-12T03:19:30.034Z,26.27
2019-02-12T03:22:03.756Z,15.18
2019-02-12T03:24:31.257Z,17.45
2019-02-12T03:27:00.971Z,14.70
2019-02-12T03:29:30.644Z,18.90
2019-02-12T03:32:00.551Z,18.15
2019-02-12T03:34:30.282Z,17.40
2019-02-12T03:37:00.118Z,14.35
2019-02-12T03:39:29.905Z,16.30
2019-02-12T03:41:59.639Z,14.65
2019-02-12T03:44:29.426Z,20.20
2019-02-12T03:46:59.264Z,15.90
2019-02-12T03:49:28.983Z,19.23
2019-02-12T03:51:58.831Z,17.07
2019-02-12T03:54:28.546Z,21.42
2019-02-12T03:56:58.296Z,15.05
2019-02-12T03:59:28.219Z,19.20
2019-02-12T04:01:57.983Z,18.15
2019-02-12T04:04:27.754Z,17.00
2019-02-12T04:06:57.539Z,19.70
2019-02-12T04:09:27.353Z,16.12
2019-02-12T04:11:57.146Z,14.75
2019-02-12T04:14:27.035Z,19.62
2019-02-12T04:16:56.798Z,20.87
2019-02-12T04:19:26.563Z,20.48
2019-02-12T04:21:56.263Z,19.30
2019-02-12T04:24:25.964Z,16.25
2019-02-12T04:26:55.722Z,16.77
2019-02-12T04:29:25.528Z,17.77
2019-02-12T04:31:55.205Z,13.68
2019-02-12T04:34:24.965Z,16.87
2019-02-12T04:36:54.744Z,16.55
2019-02-12T04:39:24.696Z,19.65
2019-02-12T04:41:54.369Z,15.35
2019-02-12T04:44:24.081Z,15.53
2019-02-12T04:46:53.917Z,17.70
2019-02-12T04:49:23.755Z,16.60
2019-02-12T04:51:53.642Z,18.65
2019-02-12T04:54:23.364Z,14.90
2019-02-12T04:56:53.197Z,18.00
2019-02-12T04:59:22.930Z,17.15
2019-02-12T05:01:52.608Z,14.50
2019-02-12T05:04:22.370Z,17.17
2019-02-12T05:06:52.134Z,17.73
2019-02-12T05:09:23.001Z,14.20
2019-02-12T05:11:55.383Z,14.60
2019-02-12T05:14:26.644Z,17.82
2019-02-12T05:16:56.329Z,20.80
2019-02-12T05:19:26.031Z,19.77
2019-02-12T05:21:55.949Z,15.53
2019-02-12T05:24:25.646Z,24.63
2019-02-12T05:26:55.342Z,17.48
2019-02-12T05:29:25.090Z,15.10
2019-02-12T05:31:54.878Z,16.32
2019-02-12T05:34:24.762Z,20.92
2019-02-12T05:36:55.487Z,20.82
2019-02-12T05:39:25.263Z,20.43
2019-02-12T05:41:55.095Z,18.82
2019-02-12T05:44:24.798Z,19.30
2019-02-12T05:46:54.572Z,17.37
2019-02-12T05:49:24.364Z,17.90
2019-02-12T05:51:54.072Z,16.40
2019-02-12T05:54:23.926Z,17.67
2019-02-12T05:56:53.700Z,18.05
2019-02-12T05:59:23.507Z,18.42
2019-02-12T06:01:53.242Z,20.43
2019-02-12T06:04:22.984Z,21.42
2019-02-12T06:06:52.759Z,15.35
2019-02-12T06:09:22.561Z,18.55
2019-02-12T06:11:52.219Z,16.02
2019-02-12T06:14:21.929Z,23.80
2019-02-12T06:16:51.826Z,21.05
2019-02-12T06:19:21.597Z,16.52
2019-02-12T06:21:51.366Z,16.77
2019-02-12T06:24:21.592Z,18.73
2019-02-12T06:26:51.270Z,21.35
2019-02-12T06:29:21.067Z,20.23
2019-02-12T06:31:50.775Z,19.75
2019-02-12T06:34:20.605Z,21.37
2019-02-12T06:36:50.466Z,20.80
2019-02-12T06:39:20.321Z,17.80
2019-02-12T06:41:50.151Z,19.73
2019-02-12T06:44:19.954Z,18.00
2019-02-12T06:46:49.825Z,18.40
2019-02-12T06:49:19.567Z,16.60
2019-02-12T06:51:49.312Z,18.40
2019-02-12T06:54:19.171Z,17.70
2019-02-12T06:56:49.106Z,21.15
2019-02-12T06:59:19.038Z,17.05
2019-02-12T07:01:48.903Z,19.40
2019-02-12T07:04:21.975Z,16.57
2019-02-12T07:07:23.216Z,21.52
2019-02-12T07:09:56.759Z,14.65
2019-02-12T07:13:10.930Z,15.38
2019-02-12T07:15:55.311Z,21.87
2019-02-12T07:18:54.588Z,21.12
2019-02-12T07:22:15.010Z,17.32
2019-02-12T07:25:29.199Z,15.78
2019-02-12T07:28:42.346Z,16.37
2019-02-12T07:32:27.107Z,17.85
2019-02-12T07:35:53.674Z,21.27
2019-02-12T07:38:59.387Z,15.35
2019-02-12T07:41:49.863Z,16.62
2019-02-12T07:44:43.055Z,19.32
2019-02-12T07:47:34.643Z,16.97
2019-02-12T07:50:54.971Z,18.30
2019-02-12T07:53:45.190Z,17.00
2019-02-12T07:56:43.920Z,17.95
2019-02-12T07:59:34.654Z,15.27
2019-02-12T08:02:40.865Z,15.00
2019-02-12T08:05:55.123Z,17.50
2019-02-12T08:09:05.737Z,20.77
2019-02-12T08:12:34.841Z,17.07
2019-02-12T08:15:27.587Z,20.05
2019-02-12T08:18:32.001Z,17.50
2019-02-12T08:21:23.991Z,18.42
2019-02-12T08:24:38.203Z,21.93
2019-02-12T08:27:51.199Z,22.25
2019-02-12T08:30:45.940Z,17.70
2019-02-12T08:33:43.311Z,21.55
2019-02-12T08:36:22.596Z,25.35
2019-02-12T08:39:38.819Z,21.07
2019-02-12T08:42:51.455Z,22.25
2019-02-12T08:45:56.559Z,19.23
2019-02-12T08:49:13.888Z,21.12
2019-02-12T08:52:20.093Z,18.80
2019-02-12T08:55:22.052Z,20.57
2019-02-12T08:58:35.931Z,18.40
2019-02-12T09:01:29.788Z,15.53
2019-02-12T09:04:33.085Z,19.82
2019-02-12T09:07:36.211Z,24.55
2019-02-12T09:10:42.255Z,15.45
2019-02-12T09:13:40.813Z,13.55
2019-02-12T09:16:50.843Z,16.62
2019-02-12T09:19:49.548Z,20.62
2019-02-12T09:23:06.091Z,18.15
2019-02-12T09:26:32.047Z,16.20
2019-02-12T09:29:49.330Z,19.32
2019-02-12T09:32:44.127Z,18.37
2019-02-12T09:35:51.233Z,16.97
2019-02-12T09:38:52.719Z,21.82
2019-02-12T09:41:33.474Z,16.62
2019-02-12T09:44:54.066Z,14.68
2019-02-12T09:48:10.253Z,17.23
2019-02-12T09:51:23.599Z,17.95
2019-02-12T09:54:24.310Z,19.77
2019-02-12T09:57:38.926Z,19.73
2019-02-12T10:00:38.576Z,18.27
2019-02-12T10:03:42.058Z,17.32
2019-02-12T10:06:54.501Z,16.42
2019-02-12T10:09:47.244Z,16.02
2019-02-12T10:12:49.718Z,15.88
2019-02-12T10:15:56.470Z,18.70
2019-02-12T10:18:52.899Z,15.80
2019-02-12T10:22:07.056Z,16.80
2019-02-12T10:25:10.826Z,19.70
2019-02-12T10:28:23.768Z,18.90
2019-02-12T10:31:17.175Z,17.48
2019-02-12T10:33:47.970Z,16.57
2019-02-12T10:36:17.796Z,16.60
2019-02-12T10:38:49.393Z,12.80
2019-02-12T10:41:19.212Z,20.57
2019-02-12T10:43:49.041Z,15.60
2019-02-12T10:46:18.874Z,18.57
2019-02-12T10:48:48.731Z,21.87
2019-02-12T10:51:18.512Z,18.32
2019-02-12T10:53:48.332Z,16.23
2019-02-12T10:56:18.215Z,17.42
2019-02-12T10:58:48.047Z,15.80
2019-02-12T11:01:17.912Z,13.28
2019-02-12T11:03:47.695Z,14.87
2019-02-12T11:06:17.487Z,15.38
2019-02-12T11:08:47.367Z,13.62
2019-02-12T11:11:17.285Z,15.37
2019-02-12T11:13:47.371Z,18.75
2019-02-12T11:16:17.151Z,13.62
2019-02-12T11:18:47.095Z,15.05
2019-02-12T11:21:17.002Z,17.65
2019-02-12T11:23:47.039Z,16.00
2019-02-12T11:26:16.973Z,15.60
2019-02-12T11:28:46.846Z,15.13
2019-02-12T11:31:16.769Z,14.30
2019-02-12T11:33:46.630Z,10.18
2019-02-12T11:36:16.549Z,12.28
2019-02-12T11:38:46.344Z,14.13
2019-02-12T11:41:16.268Z,12.93
2019-02-12T11:43:47.379Z,13.43
2019-02-12T11:46:17.335Z,13.50
2019-02-12T11:48:47.106Z,12.65
2019-02-12T11:51:16.898Z,14.73
2019-02-12T11:53:46.674Z,12.55
2019-02-12T11:56:16.430Z,13.65
2019-02-12T11:58:46.306Z,12.73
2019-02-12T12:01:19.898Z,16.15
2019-02-12T12:03:49.679Z,14.28
2019-02-12T12:06:19.410Z,12.85
2019-02-12T12:08:50.227Z,12.75
2019-02-12T12:11:20.076Z,12.65
2019-02-12T12:13:50.962Z,10.82
2019-02-12T12:16:20.929Z,12.93
2019-02-12T12:18:50.752Z,12.80
2019-02-12T12:21:20.559Z,10.98
2019-02-12T12:23:50.322Z,13.53
2019-02-12T12:26:20.083Z,15.60
2019-02-12T12:28:50.823Z,12.73
2019-02-12T12:31:20.764Z,13.08
2019-02-12T12:33:50.599Z,17.10
2019-02-12T12:36:20.343Z,8.93
2019-02-12T12:38:50.282Z,11.80
2019-02-12T12:41:20.218Z,17.95
2019-02-12T12:43:49.998Z,12.80
2019-02-12T12:46:19.878Z,13.28
2019-02-12T12:48:49.711Z,11.95
2019-02-12T12:51:19.531Z,10.23
2019-02-12T12:54:08.484Z,12.53
2019-02-12T12:56:38.279Z,13.58
2019-02-12T12:59:08.012Z,13.45
2019-02-12T13:01:37.914Z,13.38
2019-02-12T13:04:08.882Z,10.47
2019-02-12T13:06:38.615Z,12.07
2019-02-12T13:09:08.518Z,11.55
2019-02-12T13:11:38.338Z,11.90
2019-02-12T13:14:08.194Z,12.35
2019-02-12T13:16:38.000Z,12.13
2019-02-12T13:19:08.485Z,10.10
2019-02-12T13:21:38.654Z,17.45
2019-02-12T13:24:08.453Z,15.10
2019-02-12T13:26:38.191Z,10.40
2019-02-12T13:29:08.071Z,14.00
2019-02-12T13:31:38.064Z,10.28
2019-02-12T13:34:07.915Z,10.55
2019-02-12T13:36:37.689Z,11.85
2019-02-12T13:39:07.576Z,9.88
2019-02-12T13:41:37.443Z,12.58
2019-02-12T13:44:07.199Z,10.48
2019-02-12T13:46:36.917Z,13.38
2019-02-12T13:49:06.876Z,12.63
2019-02-12T13:51:36.748Z,9.63
2019-02-12T13:54:07.523Z,13.05
2019-02-12T13:56:37.270Z,11.33
2019-02-12T13:59:07.147Z,12.53
2019-02-12T14:01:36.935Z,15.25
2019-02-12T14:04:06.740Z,11.43
2019-02-12T14:06:36.808Z,11.38
2019-02-12T14:09:06.929Z,11.48
2019-02-12T14:11:36.928Z,11.73
2019-02-12T14:14:06.681Z,15.80
2019-02-12T14:16:36.500Z,12.82
2019-02-12T14:19:06.502Z,13.18
2019-02-12T14:21:36.379Z,16.27
2019-02-12T14:24:06.183Z,15.03
2019-02-12T14:26:35.975Z,11.88
2019-02-12T14:29:06.687Z,11.05
2019-02-12T14:31:36.527Z,12.35
2019-02-12T14:34:06.487Z,9.15
2019-02-12T14:36:36.284Z,12.35
2019-02-12T14:39:06.387Z,12.50
2019-02-12T14:41:36.087Z,13.32
2019-02-12T14:44:06.050Z,11.77
2019-02-12T14:46:35.769Z,11.28
2019-02-12T14:49:05.734Z,15.18
2019-02-12T14:51:35.835Z,11.60
2019-02-12T14:54:07.232Z,13.98
2019-02-12T14:56:37.270Z,10.25
2019-02-12T14:59:07.103Z,11.05
2019-02-12T15:01:36.922Z,9.48
2019-02-12T15:04:06.724Z,10.32
2019-02-12T15:06:36.615Z,14.97
2019-02-12T15:09:06.891Z,15.70
2019-02-12T15:11:36.794Z,13.60
2019-02-12T15:14:06.538Z,11.53
2019-02-12T15:16:36.500Z,12.07
2019-02-12T15:19:06.391Z,12.98
2019-02-12T15:21:36.167Z,12.98
2019-02-12T15:24:07.767Z,12.07
2019-02-12T15:26:37.479Z,11.10
2019-02-12T15:29:07.280Z,11.90
2019-02-12T15:31:37.092Z,12.05
2019-02-12T15:34:06.816Z,15.00
2019-02-12T15:36:36.702Z,24.47
2019-02-12T15:39:06.625Z,8.68
2019-02-12T15:41:36.454Z,11.50
2019-02-12T15:44:06.251Z,12.70
2019-02-12T15:46:35.976Z,23.35
2019-02-12T15:49:05.742Z,12.73
2019-02-12T15:51:35.618Z,11.85
2019-02-12T15:54:05.463Z,10.20
2019-02-12T15:56:35.283Z,16.20
2019-02-12T15:59:05.067Z,13.20
2019-02-12T16:01:34.843Z,15.98
2019-02-12T16:04:05.080Z,13.83
2019-02-12T16:06:34.770Z,14.40
2019-02-12T16:09:05.475Z,12.73
2019-02-12T16:11:36.905Z,16.00
2019-02-12T16:14:10.691Z,17.17
2019-02-12T16:16:40.565Z,15.63
2019-02-12T16:19:10.409Z,12.63
2019-02-12T16:21:40.396Z,11.53
2019-02-12T16:24:10.175Z,14.00
2019-02-12T16:26:40.049Z,14.07
2019-02-12T16:29:09.911Z,18.42
2019-02-12T16:31:39.677Z,16.10
2019-02-12T16:34:09.523Z,18.65
2019-02-12T16:36:39.378Z,13.90
2019-02-12T16:39:09.137Z,19.73
2019-02-12T16:41:38.923Z,17.02
2019-02-12T16:44:08.882Z,16.45
2019-02-12T16:46:38.809Z,15.50
2019-02-12T16:49:08.678Z,14.78
2019-02-12T16:51:38.439Z,13.27
2019-02-12T16:54:08.448Z,11.28
2019-02-12T16:56:39.340Z,14.68
2019-02-12T16:59:09.218Z,11.83
2019-02-12T17:01:39.045Z,13.95
2019-02-12T17:04:08.755Z,11.43
2019-02-12T17:06:38.610Z,14.10
2019-02-12T17:09:08.333Z,10.68
2019-02-12T17:11:38.145Z,12.37
2019-02-12T17:14:08.009Z,17.35
2019-02-12T17:16:38.791Z,15.25
2019-02-12T17:19:08.530Z,9.95
2019-02-12T17:21:38.386Z,10.78
2019-02-12T17:24:08.193Z,15.30
2019-02-12T17:26:38.010Z,10.48
2019-02-12T17:29:07.891Z,11.68
2019-02-12T17:31:37.755Z,14.77
2019-02-12T17:34:07.446Z,14.28
2019-02-12T17:36:37.413Z,9.95
2019-02-12T17:39:07.711Z,9.65
2019-02-12T17:41:39.100Z,9.23
2019-02-12T17:44:08.932Z,10.63
2019-02-12T17:46:38.724Z,10.20
2019-02-12T17:49:08.583Z,11.35
2019-02-12T17:51:38.281Z,8.70
2019-02-12T17:54:09.507Z,8.63
2019-02-12T17:56:39.339Z,8.63
2019-02-12T17:59:09.117Z,9.85
2019-02-12T18:01:39.831Z,11.65
2019-02-12T18:04:09.609Z,9.60
2019-02-12T18:06:39.386Z,11.70
2019-02-12T18:09:09.237Z,9.20
2019-02-12T18:11:38.935Z,7.92
2019-02-12T18:14:08.679Z,8.33
2019-02-12T18:16:38.378Z,14.00
2019-02-12T18:19:08.146Z,12.23
2019-02-12T18:21:37.923Z,8.93
2019-02-12T18:24:07.716Z,8.88
2019-02-12T18:26:37.547Z,7.12
2019-02-12T18:29:07.370Z,10.87
2019-02-12T18:31:37.221Z,11.12
2019-02-12T18:34:06.940Z,7.78
2019-02-12T18:36:36.694Z,10.58
2019-02-12T18:39:07.075Z,9.73
2019-02-12T18:41:36.851Z,9.08
2019-02-12T18:44:06.623Z,7.05
2019-02-12T18:46:36.373Z,7.00
2019-02-12T18:49:06.239Z,10.85
2019-02-12T18:51:37.039Z,11.18
2019-02-12T18:54:06.751Z,10.53
2019-02-12T18:56:41.414Z,11.85
2019-02-12T18:59:08.154Z,10.00
2019-02-12T19:01:37.842Z,11.50
2019-02-12T19:04:07.737Z,11.25
2019-02-12T19:06:37.519Z,9.18
2019-02-12T19:09:12.179Z,10.00
2019-02-12T19:11:52.633Z,9.83
2019-02-12T19:14:14.453Z,9.48
2019-02-12T19:16:44.197Z,10.55
2019-02-12T19:19:13.980Z,9.90
2019-02-12T19:21:43.734Z,9.53
2019-02-12T19:24:13.443Z,10.88
2019-02-12T19:26:49.777Z,10.85
2019-02-12T19:29:14.701Z,9.90
2019-02-12T19:31:44.570Z,11.85
2019-02-12T19:34:15.302Z,12.20
2019-02-12T19:36:45.136Z,8.15
2019-02-12T19:39:14.811Z,10.72
2019-02-12T19:41:44.518Z,8.15
2019-02-12T19:44:14.236Z,9.58
2019-02-12T19:46:43.898Z,9.08
2019-02-12T19:49:13.584Z,7.40
2019-02-12T19:51:43.283Z,8.30
2019-02-12T19:54:12.974Z,8.70
2019-02-12T19:56:42.795Z,12.85
2019-02-12T19:59:12.883Z,8.58
2019-02-12T20:01:42.543Z,9.05
2019-02-12T20:04:12.325Z,9.05
2019-02-12T20:06:42.018Z,9.00
2019-02-12T20:09:21.091Z,11.50
2019-02-12T20:11:50.770Z,8.68
2019-02-12T20:14:20.476Z,9.25
2019-02-12T20:16:50.224Z,11.80
2019-02-12T20:19:20.015Z,9.88
2019-02-12T20:21:49.678Z,10.93
2019-02-12T20:24:19.383Z,8.50
2019-02-12T20:26:49.106Z,10.10
2019-02-12T20:29:18.867Z,9.48
2019-02-12T20:31:48.579Z,9.00
2019-02-12T20:34:18.342Z,10.48
2019-02-12T20:36:48.163Z,12.00
2019-02-12T20:39:17.843Z,12.30
2019-02-12T20:41:47.561Z,10.88
2019-02-12T20:44:17.363Z,12.43
2019-02-12T20:46:47.072Z,11.12
2019-02-12T20:49:16.839Z,13.20
2019-02-12T20:51:46.615Z,14.07
2019-02-12T20:54:16.273Z,17.32
2019-02-12T20:56:45.978Z,14.13
2019-02-12T20:59:15.652Z,12.55
2019-02-12T21:01:45.354Z,12.68
2019-02-12T21:04:15.014Z,13.98
2019-02-12T21:06:44.870Z,10.70
2019-02-12T21:09:14.634Z,12.07
2019-02-12T21:11:44.424Z,13.88
2019-02-12T21:14:14.245Z,10.93
2019-02-12T21:16:43.943Z,11.20
2019-02-12T21:19:13.617Z,12.93
2019-02-12T21:21:43.390Z,9.45
2019-02-12T21:24:13.182Z,13.00
2019-02-12T21:26:42.963Z,11.35
2019-02-12T21:29:12.646Z,11.00
2019-02-12T21:31:42.495Z,12.00
2019-02-12T21:34:12.179Z,11.28
2019-02-12T21:36:41.875Z,12.03
2019-02-12T21:39:12.211Z,9.33
2019-02-12T21:41:42.055Z,9.90
2019-02-12T21:44:11.716Z,9.45
2019-02-12T21:46:43.223Z,17.50
2019-02-12T21:49:12.846Z,11.53
2019-02-12T21:51:42.525Z,11.80
2019-02-12T21:54:12.267Z,9.85
2019-02-12T21:56:41.986Z,10.88
2019-02-12T21:59:11.736Z,10.30
2019-02-12T22:01:41.499Z,13.18
2019-02-12T22:04:11.284Z,11.43
2019-02-12T22:06:41.099Z,11.60
2019-02-12T22:09:10.762Z,13.65
2019-02-12T22:11:40.498Z,8.93
2019-02-12T22:14:10.175Z,10.43
2019-02-12T22:16:39.886Z,12.13
2019-02-12T22:19:09.551Z,12.78
2019-02-12T22:21:39.238Z,9.68
2019-02-12T22:24:08.920Z,10.25
2019-02-12T22:26:38.741Z,9.80
2019-02-12T22:29:08.410Z,12.85
2019-02-12T22:31:38.099Z,10.65
2019-02-12T22:34:07.793Z,12.75
2019-02-12T22:36:37.559Z,11.85
2019-02-12T22:39:07.595Z,8.93
2019-02-12T22:41:37.558Z,11.73
2019-02-12T22:44:07.294Z,11.20
2019-02-12T22:46:36.957Z,11.30
2019-02-12T22:49:06.643Z,9.78
2019-02-12T22:51:36.324Z,12.10
2019-02-12T22:54:06.570Z,12.28
2019-02-12T22:56:36.325Z,12.88
2019-02-12T22:59:06.086Z,11.63
2019-02-12T23:01:39.862Z,12.23
2019-02-12T23:04:09.682Z,12.18
2019-02-12T23:06:39.367Z,13.43
2019-02-12T23:09:19.003Z,12.73
2019-02-12T23:11:48.787Z,11.43
2019-02-12T23:14:18.582Z,12.95
2019-02-12T23:16:48.355Z,17.05
2019-02-12T23:19:18.024Z,11.68
2019-02-12T23:21:48.671Z,13.88
2019-02-12T23:24:18.321Z,15.30
2019-02-12T23:26:48.006Z,12.88
2019-02-12T23:29:17.839Z,11.90
2019-02-12T23:31:47.581Z,11.15
2019-02-12T23:34:17.279Z,16.07
2019-02-12T23:36:47.080Z,15.28
2019-02-12T23:39:16.746Z,14.10
2019-02-12T23:41:46.434Z,13.18
2019-02-12T23:44:16.111Z,13.25
2019-02-12T23:46:45.785Z,14.95
2019-02-12T23:49:15.478Z,14.40
2019-02-12T23:51:45.151Z,11.65
2019-02-12T23:54:14.935Z,12.63
2019-02-12T23:56:44.606Z,14.50
2019-02-12T23:59:14.315Z,13.48
